createdAt,value
2022-08-25T00:00:10.271Z,15.4
2022-08-25T00:03:11.701Z,15.4
2022-08-25T00:06:11.374Z,15.3
2022-08-25T00:09:09.201Z,15.2
2022-08-25T00:12:09.152Z,15.3
2022-08-25T00:15:09.172Z,15.3
2022-08-25T00:18:22.017Z,15.3
2022-08-25T00:21:09.170Z,15.1
2022-08-25T00:24:09.170Z,15.1
2022-08-25T00:27:09.200Z,15.1
2022-08-25T00:30:09.180Z,15
2022-08-25T00:33:09.165Z,14.9
2022-08-25T00:36:09.166Z,14.8
2022-08-25T00:39:09.153Z,14.8
2022-08-25T00:42:18.516Z,14.7
2022-08-25T00:45:09.405Z,14.7
2022-08-25T00:48:09.864Z,14.6
2022-08-25T00:51:09.154Z,14.7
2022-08-25T00:54:09.195Z,14.7
2022-08-25T00:57:09.274Z,14.8
2022-08-25T01:00:09.169Z,14.7
2022-08-25T01:03:09.648Z,14.7
2022-08-25T01:06:09.139Z,14.7
2022-08-25T01:09:09.195Z,14.6
2022-08-25T01:12:09.125Z,14.5
2022-08-25T01:15:09.161Z,14.4
2022-08-25T01:18:09.416Z,14.4
2022-08-25T01:21:12.278Z,14.4
2022-08-25T01:24:09.270Z,14.3
2022-08-25T01:27:12.407Z,14.1
2022-08-25T01:30:09.328Z,14.2
2022-08-25T01:33:09.218Z,14.2
2022-08-25T01:36:09.248Z,14.2
2022-08-25T01:39:09.295Z,14.2
2022-08-25T01:42:09.270Z,14.3
2022-08-25T01:45:09.280Z,14.6
2022-08-25T01:48:09.715Z,14.6
2022-08-25T01:51:09.209Z,14.7
2022-08-25T01:54:09.357Z,14.7
2022-08-25T01:57:09.190Z,14.7
2022-08-25T02:00:09.273Z,14.9
2022-08-25T02:03:22.955Z,15
2022-08-25T02:06:11.473Z,15.1
2022-08-25T02:09:09.179Z,14.9
2022-08-25T02:12:09.247Z,14.9
2022-08-25T02:15:09.352Z,15
2022-08-25T02:18:09.537Z,14.9
2022-08-25T02:21:09.194Z,15.1
2022-08-25T02:24:09.230Z,15.1
2022-08-25T02:27:09.284Z,15.1
2022-08-25T02:30:09.162Z,15
2022-08-25T02:33:09.220Z,14.9
2022-08-25T02:36:09.156Z,14.9
2022-08-25T02:39:10.564Z,14.9
2022-08-25T02:42:09.688Z,15
2022-08-25T02:45:09.195Z,14.9
2022-08-25T02:48:09.652Z,14.9
2022-08-25T02:51:09.191Z,14.8
2022-08-25T02:54:09.259Z,14.7
2022-08-25T02:57:09.158Z,14.7
2022-08-25T03:00:09.210Z,14.7
2022-08-25T03:03:09.285Z,14.7
2022-08-25T03:06:09.194Z,14.7
2022-08-25T03:09:09.239Z,14.6
2022-08-25T03:12:09.221Z,14.6
2022-08-25T03:15:18.181Z,14.5
2022-08-25T03:18:15.416Z,14.5
2022-08-25T03:21:09.160Z,14.4
2022-08-25T03:24:09.243Z,14.4
2022-08-25T03:27:09.153Z,14.3
2022-08-25T03:30:09.236Z,14.3
2022-08-25T03:33:09.168Z,14.3
2022-08-25T03:36:09.181Z,14.3
2022-08-25T03:39:09.333Z,14.3
2022-08-25T03:42:09.191Z,14.3
2022-08-25T03:45:09.219Z,14.3
2022-08-25T03:48:09.366Z,14.1
2022-08-25T03:51:09.212Z,14.1
2022-08-25T03:54:09.169Z,14.1
2022-08-25T03:57:09.194Z,14
2022-08-25T04:00:09.235Z,14
2022-08-25T04:03:09.187Z,13.9
2022-08-25T04:06:09.210Z,13.9
2022-08-25T04:09:09.146Z,13.9
2022-08-25T04:12:09.780Z,13.9
2022-08-25T04:15:09.176Z,13.9
2022-08-25T04:18:09.756Z,13.9
2022-08-25T04:21:09.442Z,14.1
2022-08-25T04:24:09.191Z,14.2
2022-08-25T04:27:09.206Z,14.2
2022-08-25T04:30:09.293Z,14.3
2022-08-25T04:33:09.235Z,14.3
2022-08-25T04:36:15.733Z,14.3
2022-08-25T04:39:09.219Z,14.4
2022-08-25T04:42:09.832Z,14.4
2022-08-25T04:45:09.470Z,14.5
2022-08-25T04:48:09.480Z,14.5
2022-08-25T04:51:09.182Z,14.6
2022-08-25T04:54:09.655Z,14.7
2022-08-25T04:57:09.334Z,14.8
2022-08-25T05:00:09.270Z,14.9
2022-08-25T05:03:09.996Z,15
2022-08-25T05:06:11.813Z,15.1
2022-08-25T05:09:12.233Z,15.2
2022-08-25T05:12:13.460Z,15.3
2022-08-25T05:15:09.240Z,15.4
2022-08-25T05:18:09.672Z,15.5
2022-08-25T05:21:09.207Z,15.7
2022-08-25T05:24:09.194Z,15.8
2022-08-25T05:27:09.222Z,16.1
2022-08-25T05:30:09.539Z,16.3
2022-08-25T05:33:09.200Z,16.5
2022-08-25T05:36:09.232Z,16.8
2022-08-25T05:39:09.189Z,17
2022-08-25T05:42:09.324Z,17.2
2022-08-25T05:45:09.312Z,17.6
2022-08-25T05:48:09.670Z,18.3
2022-08-25T05:51:10.804Z,19
2022-08-25T05:54:09.244Z,19.8
2022-08-25T05:57:09.183Z,20.5
2022-08-25T06:00:09.346Z,20.9
2022-08-25T06:03:09.171Z,21.5
2022-08-25T06:06:09.251Z,21.9
2022-08-25T06:09:09.172Z,22.3
2022-08-25T06:12:11.797Z,22.9
2022-08-25T06:15:09.210Z,23.6
2022-08-25T06:18:12.255Z,23.7
2022-08-25T06:21:09.238Z,24
2022-08-25T06:24:12.140Z,24.3
2022-08-25T06:27:09.236Z,24.3
2022-08-25T06:30:28.782Z,24.5
2022-08-25T06:33:09.164Z,24.6
2022-08-25T06:36:09.236Z,25.1
2022-08-25T06:39:12.616Z,25.1
2022-08-25T06:42:09.252Z,25.3
2022-08-25T06:45:09.221Z,25.9
2022-08-25T06:48:09.970Z,26.2
2022-08-25T06:51:09.297Z,26.2
2022-08-25T06:54:09.239Z,25.9
2022-08-25T06:57:10.564Z,25.8
2022-08-25T07:00:10.455Z,25.9
2022-08-25T07:03:13.082Z,26.1
2022-08-25T07:06:09.241Z,26.2
2022-08-25T07:09:09.247Z,26.1
2022-08-25T07:12:09.217Z,25.8
2022-08-25T07:15:29.296Z,25.8
2022-08-25T07:18:12.768Z,26.2
2022-08-25T07:21:13.497Z,26.2
2022-08-25T07:24:10.627Z,26.6
2022-08-25T07:27:09.236Z,26.8
2022-08-25T07:30:13.529Z,27.4
2022-08-25T07:33:18.484Z,27.6
2022-08-25T07:36:11.615Z,28.6
2022-08-25T07:39:09.202Z,28.9
2022-08-25T07:42:18.134Z,28.1
2022-08-25T07:45:11.509Z,27.7
2022-08-25T07:48:09.263Z,27.5
2022-08-25T07:51:17.331Z,27.8
2022-08-25T07:54:10.197Z,28.1
2022-08-25T07:57:09.301Z,28.1
2022-08-25T08:00:11.312Z,28.6
2022-08-25T08:03:50.231Z,28.6
2022-08-25T08:06:10.056Z,28.8
2022-08-25T08:09:09.846Z,29.3
2022-08-25T08:12:09.375Z,28.8
2022-08-25T08:15:14.642Z,28.5
2022-08-25T08:18:12.441Z,29
2022-08-25T08:21:11.439Z,28.9
2022-08-25T08:24:56.521Z,29.3
2022-08-25T08:27:09.519Z,29.2
2022-08-25T08:30:09.247Z,29.6
2022-08-25T08:33:21.736Z,29.4
2022-08-25T08:36:14.487Z,29
2022-08-25T08:39:10.475Z,29.2
2022-08-25T08:42:23.302Z,29.1
2022-08-25T08:45:16.080Z,28.4
2022-08-25T08:48:13.603Z,29.3
2022-08-25T08:51:16.402Z,29.3
2022-08-25T08:54:17.559Z,29.9
2022-08-25T08:57:09.298Z,30.4
2022-08-25T09:00:09.402Z,29.9
2022-08-25T09:03:11.832Z,28.6
2022-08-25T09:06:12.502Z,27.7
2022-08-25T09:09:13.236Z,27.2
2022-08-25T09:12:10.759Z,26.8
2022-08-25T09:15:22.241Z,26.5
2022-08-25T09:18:14.431Z,26.2
2022-08-25T09:21:11.787Z,26.3
2022-08-25T09:24:13.882Z,27.9
2022-08-25T09:27:10.933Z,28.6
2022-08-25T09:30:14.414Z,28.3
2022-08-25T09:33:10.405Z,27.8
2022-08-25T09:36:15.606Z,26.9
2022-08-25T09:39:14.273Z,26.3
2022-08-25T09:42:09.296Z,25.8
2022-08-25T09:45:09.246Z,25.6
2022-08-25T09:48:10.186Z,25.7
2022-08-25T09:51:10.289Z,26.1
2022-08-25T09:54:17.259Z,26.9
2022-08-25T09:57:17.720Z,27
2022-08-25T10:00:09.990Z,27.2
2022-08-25T10:03:15.428Z,26.8
2022-08-25T10:06:15.293Z,26.8
2022-08-25T10:09:12.377Z,27.2
2022-08-25T10:12:13.079Z,26.8
2022-08-25T10:15:10.889Z,27.2
2022-08-25T10:18:09.590Z,26.9
2022-08-25T10:21:12.495Z,27.2
2022-08-25T10:24:10.309Z,27.5
2022-08-25T10:27:09.748Z,28.6
2022-08-25T10:30:11.487Z,29.3
2022-08-25T10:33:09.909Z,28.7
2022-08-25T10:36:10.659Z,27.8
2022-08-25T10:39:44.832Z,27.2
2022-08-25T10:42:15.268Z,26.8
2022-08-25T10:45:19.521Z,26.6
2022-08-25T10:48:09.282Z,27.2
2022-08-25T10:51:09.573Z,28.1
2022-08-25T10:54:11.570Z,29.2
2022-08-25T10:57:15.690Z,28.8
2022-08-25T11:00:09.903Z,27.9
2022-08-25T11:03:09.862Z,28.5
2022-08-25T11:06:11.169Z,28.7
2022-08-25T11:09:12.459Z,28.8
2022-08-25T11:12:09.248Z,29.1
2022-08-25T11:15:13.497Z,29.9
2022-08-25T11:18:21.073Z,29.9
2022-08-25T11:21:10.796Z,29.7
2022-08-25T11:24:10.123Z,29
2022-08-25T11:27:09.248Z,28.8
2022-08-25T11:30:12.540Z,29.5
2022-08-25T11:33:12.518Z,30.4
2022-08-25T11:36:13.022Z,31.2
2022-08-25T11:39:10.558Z,30.6
2022-08-25T11:42:09.565Z,29.6
2022-08-25T11:45:10.490Z,28.3
2022-08-25T11:48:10.925Z,29
2022-08-25T11:51:13.683Z,30.1
2022-08-25T11:54:09.710Z,30.7
2022-08-25T11:57:11.110Z,30.8
2022-08-25T12:00:09.343Z,30.9
2022-08-25T12:03:13.837Z,30.6
2022-08-25T12:06:09.972Z,30.3
2022-08-25T12:09:09.405Z,30
2022-08-25T12:12:18.796Z,29.5
2022-08-25T12:15:10.535Z,29
2022-08-25T12:18:21.050Z,28.9
2022-08-25T12:21:09.966Z,29.9
2022-08-25T12:24:09.214Z,31.1
2022-08-25T12:27:13.063Z,30.9
2022-08-25T12:30:18.424Z,30.6
2022-08-25T12:33:09.849Z,30.8
2022-08-25T12:36:13.436Z,31.1
2022-08-25T12:39:13.212Z,30.8
2022-08-25T12:45:10.110Z,30.5
2022-08-25T12:48:10.762Z,30.4
2022-08-25T12:51:09.277Z,30.7
2022-08-25T12:54:18.981Z,31.2
2022-08-25T12:57:12.884Z,31.2
2022-08-25T13:00:14.662Z,30.7
2022-08-25T13:03:13.141Z,30.5
2022-08-25T13:06:14.216Z,30.8
2022-08-25T13:09:14.860Z,31
2022-08-25T13:12:12.059Z,31.2
2022-08-25T13:15:11.494Z,31.4
2022-08-25T13:18:10.317Z,31.4
2022-08-25T13:21:12.198Z,31.2
2022-08-25T13:24:14.665Z,31.1
2022-08-25T13:30:15.164Z,30.6
2022-08-25T13:33:17.659Z,30.8
2022-08-25T13:36:14.439Z,30.7
2022-08-25T13:39:11.465Z,31.1
2022-08-25T13:42:15.841Z,31
2022-08-25T13:45:09.593Z,30.1
2022-08-25T13:48:28.351Z,29.5
2022-08-25T13:51:10.961Z,29
2022-08-25T13:54:09.422Z,28.6
2022-08-25T13:57:12.723Z,28.4
2022-08-25T14:00:11.602Z,28.7
2022-08-25T14:03:20.028Z,28.7
2022-08-25T14:06:10.391Z,28.6
2022-08-25T14:09:12.087Z,28.9
2022-08-25T14:12:09.226Z,28.9
2022-08-25T14:15:09.335Z,28.6
2022-08-25T14:18:13.730Z,28.6
2022-08-25T14:21:11.025Z,28.8
2022-08-25T14:24:13.101Z,29.1
2022-08-25T14:27:09.354Z,29.3
2022-08-25T14:30:09.428Z,29.2
2022-08-25T14:33:11.123Z,29.3
2022-08-25T14:36:09.740Z,29.4
2022-08-25T14:39:12.949Z,29.4
2022-08-25T14:42:09.280Z,29.6
2022-08-25T14:45:11.208Z,29.8
2022-08-25T14:48:16.895Z,30
2022-08-25T14:51:09.400Z,29.9
2022-08-25T14:54:11.061Z,29.9
2022-08-25T14:57:12.775Z,29.7
2022-08-25T15:00:13.307Z,29.8
2022-08-25T15:03:10.621Z,29.5
2022-08-25T15:06:13.490Z,29.3
2022-08-25T15:09:10.016Z,29.2
2022-08-25T15:12:12.536Z,29.1
2022-08-25T15:15:09.295Z,29.1
2022-08-25T15:18:12.054Z,29.1
2022-08-25T15:21:10.982Z,29.1
2022-08-25T15:24:09.362Z,29
2022-08-25T15:27:14.315Z,29
2022-08-25T15:30:09.675Z,29
2022-08-25T15:33:12.026Z,29.1
2022-08-25T15:36:17.315Z,29.1
2022-08-25T15:39:11.027Z,29.2
2022-08-25T15:42:10.663Z,29.1
2022-08-25T15:45:11.618Z,29.1
2022-08-25T15:48:12.197Z,29.1
2022-08-25T15:51:13.749Z,29.1
2022-08-25T15:54:09.251Z,29.1
2022-08-25T15:57:26.558Z,29
2022-08-25T16:00:12.118Z,29.1
2022-08-25T16:03:12.536Z,29
2022-08-25T16:06:09.232Z,28.9
2022-08-25T16:09:12.467Z,28.8
2022-08-25T16:12:19.325Z,28.7
2022-08-25T16:15:12.044Z,28.7
2022-08-25T16:18:11.843Z,28.7
2022-08-25T16:21:18.988Z,28.6
2022-08-25T16:24:16.024Z,28.6
2022-08-25T16:27:20.540Z,28.5
2022-08-25T16:30:17.099Z,28.4
2022-08-25T16:33:11.942Z,28.3
2022-08-25T16:36:11.221Z,28.3
2022-08-25T16:39:16.276Z,28.3
2022-08-25T16:42:10.899Z,28.1
2022-08-25T16:45:11.809Z,28.1
2022-08-25T16:48:10.524Z,27.9
2022-08-25T16:51:10.821Z,27.9
2022-08-25T16:54:10.651Z,27.9
2022-08-25T16:57:09.309Z,27.8
2022-08-25T17:00:09.506Z,27.7
2022-08-25T17:03:09.203Z,27.6
2022-08-25T17:06:10.492Z,27.5
2022-08-25T17:09:11.362Z,27.4
2022-08-25T17:12:10.255Z,27.3
2022-08-25T17:15:12.528Z,27.2
2022-08-25T17:18:13.362Z,27.1
2022-08-25T17:21:10.416Z,27.1
2022-08-25T17:24:13.574Z,27
2022-08-25T17:27:10.840Z,26.9
2022-08-25T17:30:09.262Z,26.8
2022-08-25T17:33:10.396Z,26.8
2022-08-25T17:36:09.858Z,26.6
2022-08-25T17:39:09.939Z,26.6
2022-08-25T17:42:10.749Z,26.6
2022-08-25T17:45:11.403Z,26.5
2022-08-25T17:48:11.491Z,26.4
2022-08-25T17:51:10.415Z,26.2
2022-08-25T17:54:09.189Z,26.2
2022-08-25T17:57:09.656Z,26
2022-08-25T18:00:12.647Z,25.8
2022-08-25T18:03:09.183Z,25.8
2022-08-25T18:06:17.091Z,25.7
2022-08-25T18:09:10.925Z,25.6
2022-08-25T18:12:09.816Z,25.5
2022-08-25T18:15:10.312Z,25.5
2022-08-25T18:18:14.782Z,25.4
2022-08-25T18:21:11.165Z,25.3
2022-08-25T18:24:10.303Z,25.3
2022-08-25T18:27:10.735Z,25.2
2022-08-25T18:30:09.724Z,25.1
2022-08-25T18:33:10.485Z,25.1
2022-08-25T18:36:09.212Z,25
2022-08-25T18:39:09.461Z,25
2022-08-25T18:42:09.153Z,24.9
2022-08-25T18:45:14.410Z,24.9
2022-08-25T18:48:13.542Z,24.8
2022-08-25T18:51:12.528Z,24.7
2022-08-25T18:54:24.850Z,24.6
2022-08-25T18:57:13.128Z,24.6
2022-08-25T19:00:10.223Z,24.5
2022-08-25T19:03:11.181Z,24.4
2022-08-25T19:06:09.322Z,24.3
2022-08-25T19:09:09.256Z,24.3
2022-08-25T19:12:22.098Z,24.2
2022-08-25T19:15:12.191Z,24.1
2022-08-25T19:18:15.573Z,23.9
2022-08-25T19:21:10.424Z,23.9
2022-08-25T19:24:11.727Z,24
2022-08-25T19:27:15.102Z,24.1
2022-08-25T19:30:10.182Z,24.1
2022-08-25T19:33:45.311Z,24
2022-08-25T19:36:11.026Z,24
2022-08-25T19:39:09.231Z,24
2022-08-25T19:42:40.617Z,24
2022-08-25T19:45:09.714Z,23.9
2022-08-25T19:48:10.207Z,23.9
2022-08-25T19:51:15.998Z,23.9
2022-08-25T19:54:14.369Z,23.9
2022-08-25T19:57:13.193Z,23.9
2022-08-25T20:00:10.350Z,23.8
2022-08-25T20:03:11.244Z,23.8
2022-08-25T20:06:10.472Z,23.8
2022-08-25T20:09:35.863Z,23.9
2022-08-25T20:12:10.728Z,23.8
2022-08-25T20:15:09.261Z,23.7
2022-08-25T20:18:13.022Z,23.7
2022-08-25T20:21:10.763Z,23.7
2022-08-25T20:24:11.674Z,23.6
2022-08-25T20:27:09.616Z,23.4
2022-08-25T20:30:11.910Z,23.5
2022-08-25T20:33:14.021Z,23.5
2022-08-25T20:36:09.313Z,23.4
2022-08-25T20:39:09.819Z,23.5
2022-08-25T20:42:09.481Z,23.4
2022-08-25T20:45:09.962Z,23.4
2022-08-25T20:48:11.577Z,23.4
2022-08-25T20:51:09.455Z,23.3
2022-08-25T20:54:09.596Z,23.1
2022-08-25T20:57:15.607Z,22.9
2022-08-25T21:00:11.653Z,22.8
2022-08-25T21:03:11.379Z,22.6
2022-08-25T21:06:09.310Z,22.4
2022-08-25T21:09:17.812Z,22.2
2022-08-25T21:12:11.616Z,22.1
2022-08-25T21:15:11.371Z,22.1
2022-08-25T21:18:09.762Z,22.1
2022-08-25T21:21:13.314Z,22.1
2022-08-25T21:24:14.392Z,22.4
2022-08-25T21:27:10.799Z,22.4
2022-08-25T21:30:09.407Z,22.2
2022-08-25T21:33:09.807Z,22.1
2022-08-25T21:36:12.309Z,21.9
2022-08-25T21:39:09.862Z,21.7
2022-08-25T21:45:20.870Z,21.5
2022-08-25T21:48:11.218Z,21.4
2022-08-25T21:51:11.199Z,21.3
2022-08-25T21:54:09.445Z,21.2
2022-08-25T21:57:09.190Z,21.2
2022-08-25T22:00:11.162Z,21.1
2022-08-25T22:03:09.414Z,20.9
2022-08-25T22:06:10.964Z,20.7
2022-08-25T22:09:10.447Z,20.5
2022-08-25T22:12:09.271Z,20.3
2022-08-25T22:15:14.564Z,20
2022-08-25T22:18:10.083Z,19.9
2022-08-25T22:21:16.722Z,19.8
2022-08-25T22:24:09.624Z,19.8
2022-08-25T22:27:19.798Z,19.8
2022-08-25T22:30:09.783Z,19.8
2022-08-25T22:33:13.303Z,19.9
2022-08-25T22:36:13.066Z,19.9
2022-08-25T22:39:09.271Z,19.9
2022-08-25T22:42:09.546Z,19.9
2022-08-25T22:45:10.062Z,19.8
2022-08-25T22:48:09.177Z,19.7
2022-08-25T22:51:11.517Z,19.6
2022-08-25T22:54:13.919Z,19.4
2022-08-25T22:57:16.236Z,19.4
2022-08-25T23:00:12.029Z,19.3
2022-08-25T23:03:13.572Z,19.3
2022-08-25T23:06:11.384Z,19.4
2022-08-25T23:09:10.768Z,19.4
2022-08-25T23:12:09.553Z,19.5
2022-08-25T23:15:12.047Z,19.5
2022-08-25T23:18:09.251Z,19.6
2022-08-25T23:21:12.443Z,19.6
2022-08-25T23:24:10.664Z,19.6
2022-08-25T23:27:11.660Z,19.6
2022-08-25T23:30:11.200Z,19.7
2022-08-25T23:33:10.887Z,19.7
2022-08-25T23:36:09.420Z,19.7
2022-08-25T23:39:11.982Z,19.8
2022-08-25T23:42:10.177Z,19.8
2022-08-25T23:45:10.974Z,19.8
2022-08-25T23:48:09.677Z,19.8
2022-08-25T23:51:10.139Z,19.9
2022-08-25T23:54:11.823Z,19.9
2022-08-25T23:57:13.787Z,19.9
